sensor_id;sensor_type;location;lat;lon;timestamp;pressure;altitude;pressure_sealevel;temperature;humidity
6343;BME280;3204;42.698;23.298;2023-07-30T00:01:07;94775.03;;;22.66;62.09
6343;BME280;3204;42.698;23.298;2023-07-30T00:03:32;94769.13;;;22.68;62.04
6343;BME280;3204;42.698;23.298;2023-07-30T00:05:57;94765.94;;;22.66;62.12
6343;BME280;3204;42.698;23.298;2023-07-30T00:08:23;94767.13;;;22.68;61.89
6343;BME280;3204;42.698;23.298;2023-07-30T00:10:49;94761.97;;;22.60;62.49
6343;BME280;3204;42.698;23.298;2023-07-30T00:13:15;94767.06;;;22.54;62.55
6343;BME280;3204;42.698;23.298;2023-07-30T00:15:40;94767.84;;;22.51;62.55
6343;BME280;3204;42.698;23.298;2023-07-30T00:18:06;94764.69;;;22.49;63.08
6343;BME280;3204;42.698;23.298;2023-07-30T00:20:34;94757.09;;;22.39;63.29
6343;BME280;3204;42.698;23.298;2023-07-30T00:23:00;94759.03;;;22.32;63.52
6343;BME280;3204;42.698;23.298;2023-07-30T00:25:26;94763.75;;;22.28;63.41
6343;BME280;3204;42.698;23.298;2023-07-30T00:27:51;94761.00;;;22.28;63.38
6343;BME280;3204;42.698;23.298;2023-07-30T00:30:17;94756.63;;;22.23;63.08
6343;BME280;3204;42.698;23.298;2023-07-30T00:32:42;94755.44;;;22.21;63.40
6343;BME280;3204;42.698;23.298;2023-07-30T00:35:09;94751.03;;;22.13;63.45
6343;BME280;3204;42.698;23.298;2023-07-30T00:37:35;94741.56;;;22.10;63.34
6343;BME280;3204;42.698;23.298;2023-07-30T00:40:02;94747.88;;;22.11;62.91
6343;BME280;3204;42.698;23.298;2023-07-30T00:42:28;94750.66;;;22.11;63.12
6343;BME280;3204;42.698;23.298;2023-07-30T00:44:53;94754.97;;;22.08;63.37
6343;BME280;3204;42.698;23.298;2023-07-30T00:47:19;94754.19;;;22.11;63.35
6343;BME280;3204;42.698;23.298;2023-07-30T00:49:45;94755.75;;;22.09;63.29
6343;BME280;3204;42.698;23.298;2023-07-30T00:52:11;94756.94;;;22.11;63.16
6343;BME280;3204;42.698;23.298;2023-07-30T00:54:37;94753.00;;;22.09;63.23
6343;BME280;3204;42.698;23.298;2023-07-30T00:57:04;94745.50;;;22.09;63.11
6343;BME280;3204;42.698;23.298;2023-07-30T00:59:30;94751.81;;;22.10;63.31
6343;BME280;3204;42.698;23.298;2023-07-30T01:01:56;94748.66;;;22.11;63.29
6343;BME280;3204;42.698;23.298;2023-07-30T01:04:22;94741.56;;;22.14;63.42
6343;BME280;3204;42.698;23.298;2023-07-30T01:06:48;94751.03;;;22.13;63.39
6343;BME280;3204;42.698;23.298;2023-07-30T01:09:13;94756.56;;;22.09;63.56
6343;BME280;3204;42.698;23.298;2023-07-30T01:11:39;94757.66;;;21.94;64.20
6343;BME280;3204;42.698;23.298;2023-07-30T01:14:06;94756.00;;;21.86;64.56
6343;BME280;3204;42.698;23.298;2023-07-30T01:16:33;94756.09;;;22.00;64.24
6343;BME280;3204;42.698;23.298;2023-07-30T01:18:58;94759.66;;;22.01;63.83
6343;BME280;3204;42.698;23.298;2023-07-30T01:21:26;94765.88;;;21.87;64.05
6343;BME280;3204;42.698;23.298;2023-07-30T01:23:51;94757.19;;;21.85;64.28
6343;BME280;3204;42.698;23.298;2023-07-30T01:26:22;94760.34;;;21.87;64.50
6343;BME280;3204;42.698;23.298;2023-07-30T01:28:51;94759.53;;;21.83;64.45
6343;BME280;3204;42.698;23.298;2023-07-30T01:31:17;94756.78;;;21.83;64.22
6343;BME280;3204;42.698;23.298;2023-07-30T01:33:47;94760.06;;;22.06;63.44
6343;BME280;3204;42.698;23.298;2023-07-30T01:36:15;94758.13;;;22.07;63.06
6343;BME280;3204;42.698;23.298;2023-07-30T01:38:43;94764.38;;;22.00;63.13
6343;BME280;3204;42.698;23.298;2023-07-30T01:41:09;94764.28;;;21.86;63.25
6343;BME280;3204;42.698;23.298;2023-07-30T01:43:34;94764.25;;;21.79;63.68
6343;BME280;3204;42.698;23.298;2023-07-30T01:46:00;94764.06;;;21.58;64.23
6343;BME280;3204;42.698;23.298;2023-07-30T01:48:26;94758.56;;;21.62;64.13
6343;BME280;3204;42.698;23.298;2023-07-30T01:50:52;94762.00;;;21.48;64.10
6343;BME280;3204;42.698;23.298;2023-07-30T01:53:18;94763.09;;;21.37;64.42
6343;BME280;3204;42.698;23.298;2023-07-30T01:55:43;94765.94;;;21.44;64.32
6343;BME280;3204;42.698;23.298;2023-07-30T01:58:11;94763.91;;;21.37;64.35
6343;BME280;3204;42.698;23.298;2023-07-30T02:00:37;94767.81;;;21.36;64.59
6343;BME280;3204;42.698;23.298;2023-07-30T02:03:03;94771.00;;;21.38;64.75
6343;BME280;3204;42.698;23.298;2023-07-30T02:05:29;94770.91;;;21.31;65.17
6343;BME280;3204;42.698;23.298;2023-07-30T02:07:55;94771.34;;;21.33;64.78
6343;BME280;3204;42.698;23.298;2023-07-30T02:10:20;94769.81;;;21.39;65.08
6343;BME280;3204;42.698;23.298;2023-07-30T02:12:45;94769.34;;;21.30;65.06
6343;BME280;3204;42.698;23.298;2023-07-30T02:15:11;94769.41;;;21.37;64.74
6343;BME280;3204;42.698;23.298;2023-07-30T02:17:36;94770.19;;;21.38;64.60
6343;BME280;3204;42.698;23.298;2023-07-30T02:20:02;94772.88;;;21.27;64.82
6343;BME280;3204;42.698;23.298;2023-07-30T02:22:28;94773.59;;;21.21;65.09
6343;BME280;3204;42.698;23.298;2023-07-30T02:24:53;94774.69;;;21.13;65.16
6343;BME280;3204;42.698;23.298;2023-07-30T02:27:19;94776.25;;;21.10;65.61
6343;BME280;3204;42.698;23.298;2023-07-30T02:29:44;94780.56;;;21.08;65.71
6343;BME280;3204;42.698;23.298;2023-07-30T02:32:10;94776.22;;;21.07;65.87
6343;BME280;3204;42.698;23.298;2023-07-30T02:34:35;94775.84;;;21.08;65.93
6343;BME280;3204;42.698;23.298;2023-07-30T02:37:00;94780.16;;;21.06;66.12
6343;BME280;3204;42.698;23.298;2023-07-30T02:39:26;94774.34;;;21.18;65.86
6343;BME280;3204;42.698;23.298;2023-07-30T02:41:51;94783.34;;;21.11;66.06
6343;BME280;3204;42.698;23.298;2023-07-30T02:44:16;94785.31;;;21.11;66.38
6343;BME280;3204;42.698;23.298;2023-07-30T02:46:42;94779.00;;;21.10;66.35
6343;BME280;3204;42.698;23.298;2023-07-30T02:49:07;94778.91;;;21.03;66.48
6343;BME280;3204;42.698;23.298;2023-07-30T02:51:34;94777.81;;;21.11;66.40
6343;BME280;3204;42.698;23.298;2023-07-30T02:54:04;94781.75;;;21.10;66.50
6343;BME280;3204;42.698;23.298;2023-07-30T02:56:30;94777.78;;;21.08;66.71
6343;BME280;3204;42.698;23.298;2023-07-30T02:58:56;94781.78;;;21.14;66.55
6343;BME280;3204;42.698;23.298;2023-07-30T03:01:21;94781.28;;;21.01;66.80
6343;BME280;3204;42.698;23.298;2023-07-30T03:03:47;94779.56;;;20.90;67.20
6343;BME280;3204;42.698;23.298;2023-07-30T03:06:13;94780.88;;;20.99;66.84
6343;BME280;3204;42.698;23.298;2023-07-30T03:08:39;94789.38;;;20.87;66.92
6343;BME280;3204;42.698;23.298;2023-07-30T03:11:04;94789.09;;;20.96;66.92
6343;BME280;3204;42.698;23.298;2023-07-30T03:13:30;94795.03;;;20.98;66.70
6343;BME280;3204;42.698;23.298;2023-07-30T03:15:55;94783.19;;;20.97;66.70
6343;BME280;3204;42.698;23.298;2023-07-30T03:18:21;94780.38;;;20.90;67.25
6343;BME280;3204;42.698;23.298;2023-07-30T03:20:46;94783.81;;;20.84;67.21
6343;BME280;3204;42.698;23.298;2023-07-30T03:23:12;94783.44;;;20.85;67.56
6343;BME280;3204;42.698;23.298;2023-07-30T03:25:37;94785.81;;;20.87;67.15
6343;BME280;3204;42.698;23.298;2023-07-30T03:28:03;94783.91;;;20.91;67.16
6343;BME280;3204;42.698;23.298;2023-07-30T03:30:28;94779.22;;;20.95;67.29
6343;BME280;3204;42.698;23.298;2023-07-30T03:32:53;94788.97;;;20.85;67.62
6343;BME280;3204;42.698;23.298;2023-07-30T03:35:19;94784.13;;;21.08;66.83
6343;BME280;3204;42.698;23.298;2023-07-30T03:37:45;94775.00;;;21.04;66.99
6343;BME280;3204;42.698;23.298;2023-07-30T03:40:10;94785.53;;;20.92;67.00
6343;BME280;3204;42.698;23.298;2023-07-30T03:42:35;94783.72;;;21.10;66.41
6343;BME280;3204;42.698;23.298;2023-07-30T03:45:01;94786.63;;;21.24;65.51
6343;BME280;3204;42.698;23.298;2023-07-30T03:47:26;94793.47;;;21.00;65.35
6343;BME280;3204;42.698;23.298;2023-07-30T03:49:52;94788.59;;;20.87;65.56
6343;BME280;3204;42.698;23.298;2023-07-30T03:52:17;94788.50;;;20.80;65.19
6343;BME280;3204;42.698;23.298;2023-07-30T03:54:43;94792.31;;;20.72;64.90
6343;BME280;3204;42.698;23.298;2023-07-30T03:57:08;94801.91;;;20.48;65.69
6343;BME280;3204;42.698;23.298;2023-07-30T03:59:34;94799.13;;;20.48;65.98
6343;BME280;3204;42.698;23.298;2023-07-30T04:01:59;94804.84;;;20.33;66.36
6343;BME280;3204;42.698;23.298;2023-07-30T04:04:25;94797.81;;;20.39;66.22
6343;BME280;3204;42.698;23.298;2023-07-30T04:06:50;94806.72;;;20.25;66.85
6343;BME280;3204;42.698;23.298;2023-07-30T04:09:16;94802.44;;;20.31;66.88
6343;BME280;3204;42.698;23.298;2023-07-30T04:11:42;94797.66;;;20.58;66.12
6343;BME280;3204;42.698;23.298;2023-07-30T04:14:07;94801.53;;;20.83;65.04
6343;BME280;3204;42.698;23.298;2023-07-30T04:16:34;94805.06;;;20.83;65.13
6343;BME280;3204;42.698;23.298;2023-07-30T04:18:59;94808.94;;;20.75;65.35
6343;BME280;3204;42.698;23.298;2023-07-30T04:21:25;94805.44;;;20.82;65.11
6343;BME280;3204;42.698;23.298;2023-07-30T04:23:50;94806.03;;;20.94;64.87
6343;BME280;3204;42.698;23.298;2023-07-30T04:26:16;94809.25;;;21.03;64.66
6343;BME280;3204;42.698;23.298;2023-07-30T04:28:42;94815.91;;;20.99;64.87
6343;BME280;3204;42.698;23.298;2023-07-30T04:31:08;94809.38;;;21.14;64.73
6343;BME280;3204;42.698;23.298;2023-07-30T04:33:33;94817.78;;;21.24;63.99
6343;BME280;3204;42.698;23.298;2023-07-30T04:35:59;94811.19;;;21.36;64.09
6343;BME280;3204;42.698;23.298;2023-07-30T04:38:24;94807.19;;;21.30;64.36
6343;BME280;3204;42.698;23.298;2023-07-30T04:40:50;94812.16;;;21.54;63.29
6343;BME280;3204;42.698;23.298;2023-07-30T04:43:15;94818.31;;;21.40;63.69
6343;BME280;3204;42.698;23.298;2023-07-30T04:45:42;94814.06;;;21.46;63.59
6343;BME280;3204;42.698;23.298;2023-07-30T04:48:07;94816.59;;;21.65;63.32
6343;BME280;3204;42.698;23.298;2023-07-30T04:50:33;94820.91;;;21.63;63.58
6343;BME280;3204;42.698;23.298;2023-07-30T04:52:58;94819.41;;;21.72;63.13
6343;BME280;3204;42.698;23.298;2023-07-30T04:55:24;94814.75;;;21.80;63.05
6343;BME280;3204;42.698;23.298;2023-07-30T04:57:49;94823.88;;;21.87;62.73
6343;BME280;3204;42.698;23.298;2023-07-30T05:00:15;94812.94;;;22.01;62.09
6343;BME280;3204;42.698;23.298;2023-07-30T05:02:40;94816.97;;;22.11;61.88
6343;BME280;3204;42.698;23.298;2023-07-30T05:05:06;94819.38;;;22.19;61.66
6343;BME280;3204;42.698;23.298;2023-07-30T05:07:31;94819.47;;;22.33;61.61
6343;BME280;3204;42.698;23.298;2023-07-30T05:09:57;94818.38;;;22.45;61.02
6343;BME280;3204;42.698;23.298;2023-07-30T05:12:22;94816.88;;;22.61;60.72
6343;BME280;3204;42.698;23.298;2023-07-30T05:14:48;94805.81;;;22.58;60.80
6343;BME280;3204;42.698;23.298;2023-07-30T05:17:13;94816.06;;;22.57;60.84
6343;BME280;3204;42.698;23.298;2023-07-30T05:19:39;94816.94;;;22.75;60.53
6343;BME280;3204;42.698;23.298;2023-07-30T05:22:05;94817.34;;;22.77;60.39
6343;BME280;3204;42.698;23.298;2023-07-30T05:24:33;94821.31;;;22.80;60.08
6343;BME280;3204;42.698;23.298;2023-07-30T05:26:59;94814.56;;;22.77;60.44
6343;BME280;3204;42.698;23.298;2023-07-30T05:29:24;94813.44;;;22.89;60.08
6343;BME280;3204;42.698;23.298;2023-07-30T05:31:50;94810.59;;;22.71;60.47
6343;BME280;3204;42.698;23.298;2023-07-30T05:34:15;94810.63;;;22.75;60.40
6343;BME280;3204;42.698;23.298;2023-07-30T05:36:40;94816.97;;;22.79;60.21
6343;BME280;3204;42.698;23.298;2023-07-30T05:39:06;94822.50;;;22.82;59.96
6343;BME280;3204;42.698;23.298;2023-07-30T05:41:31;94813.41;;;22.82;59.64
6343;BME280;3204;42.698;23.298;2023-07-30T05:43:57;94824.13;;;22.94;59.62
6343;BME280;3204;42.698;23.298;2023-07-30T05:46:23;94826.09;;;22.90;59.00
6343;BME280;3204;42.698;23.298;2023-07-30T05:48:48;94824.50;;;22.85;59.20
6343;BME280;3204;42.698;23.298;2023-07-30T05:51:14;94826.91;;;22.97;59.14
6343;BME280;3204;42.698;23.298;2023-07-30T05:53:39;94821.09;;;23.23;58.51
6343;BME280;3204;42.698;23.298;2023-07-30T05:56:05;94821.13;;;23.41;57.96
6343;BME280;3204;42.698;23.298;2023-07-30T05:58:30;94825.50;;;23.49;57.61
6343;BME280;3204;42.698;23.298;2023-07-30T06:00:56;94830.66;;;23.50;57.55
6343;BME280;3204;42.698;23.298;2023-07-30T06:03:22;94824.31;;;23.46;57.98
6343;BME280;3204;42.698;23.298;2023-07-30T06:05:47;94827.47;;;23.59;57.75
6343;BME280;3204;42.698;23.298;2023-07-30T06:08:13;94825.13;;;23.68;57.12
6343;BME280;3204;42.698;23.298;2023-07-30T06:10:38;94824.31;;;23.67;56.93
6343;BME280;3204;42.698;23.298;2023-07-30T06:13:05;94821.97;;;23.73;56.87
6343;BME280;3204;42.698;23.298;2023-07-30T06:15:32;94822.38;;;23.78;56.75
6343;BME280;3204;42.698;23.298;2023-07-30T06:17:57;94824.34;;;23.74;56.80
6343;BME280;3204;42.698;23.298;2023-07-30T06:20:22;94829.91;;;23.92;56.48
6343;BME280;3204;42.698;23.298;2023-07-30T06:22:48;94829.91;;;24.16;56.38
6343;BME280;3204;42.698;23.298;2023-07-30T06:25:13;94825.09;;;24.41;55.68
6343;BME280;3204;42.698;23.298;2023-07-30T06:27:39;94822.66;;;24.71;55.22
6343;BME280;3204;42.698;23.298;2023-07-30T06:30:04;94825.38;;;24.92;54.36
6343;BME280;3204;42.698;23.298;2023-07-30T06:32:30;94826.13;;;24.96;53.94
6343;BME280;3204;42.698;23.298;2023-07-30T06:34:55;94820.59;;;25.00;53.81
6343;BME280;3204;42.698;23.298;2023-07-30T06:37:21;94819.34;;;25.11;54.46
6343;BME280;3204;42.698;23.298;2023-07-30T06:39:46;94812.53;;;25.30;53.64
6343;BME280;3204;42.698;23.298;2023-07-30T06:42:12;94810.38;;;25.55;53.22
6343;BME280;3204;42.698;23.298;2023-07-30T06:44:38;94802.34;;;25.67;52.52
6343;BME280;3204;42.698;23.298;2023-07-30T06:47:03;94807.63;;;26.06;52.13
6343;BME280;3204;42.698;23.298;2023-07-30T06:49:29;94802.31;;;26.25;50.82
6343;BME280;3204;42.698;23.298;2023-07-30T06:51:54;94813.22;;;26.46;50.51
6343;BME280;3204;42.698;23.298;2023-07-30T06:54:20;94799.25;;;26.53;50.36
6343;BME280;3204;42.698;23.298;2023-07-30T06:56:46;94799.97;;;26.61;50.11
6343;BME280;3204;42.698;23.298;2023-07-30T06:59:11;94790.97;;;26.83;49.33
6343;BME280;3204;42.698;23.298;2023-07-30T07:01:36;94799.56;;;26.96;49.21
6343;BME280;3204;42.698;23.298;2023-07-30T07:04:02;94803.44;;;26.72;48.99
6343;BME280;3204;42.698;23.298;2023-07-30T07:06:27;94791.44;;;26.78;49.96
6343;BME280;3204;42.698;23.298;2023-07-30T07:08:53;94787.06;;;26.77;49.04
6343;BME280;3204;42.698;23.298;2023-07-30T07:11:18;94789.56;;;26.68;49.42
6343;BME280;3204;42.698;23.298;2023-07-30T07:13:44;94784.66;;;26.79;49.26
6343;BME280;3204;42.698;23.298;2023-07-30T07:16:09;94782.19;;;27.18;48.69
6343;BME280;3204;42.698;23.298;2023-07-30T07:18:35;94779.06;;;27.43;47.05
6343;BME280;3204;42.698;23.298;2023-07-30T07:21:00;94785.78;;;27.46;47.38
6343;BME280;3204;42.698;23.298;2023-07-30T07:23:26;94778.50;;;27.25;46.78
6343;BME280;3204;42.698;23.298;2023-07-30T07:25:51;94781.22;;;27.59;46.83
6343;BME280;3204;42.698;23.298;2023-07-30T07:28:17;94770.69;;;27.43;46.50
6343;BME280;3204;42.698;23.298;2023-07-30T07:30:44;94763.75;;;27.55;46.35
6343;BME280;3204;42.698;23.298;2023-07-30T07:33:10;94768.69;;;27.97;45.53
6343;BME280;3204;42.698;23.298;2023-07-30T07:35:38;94765.19;;;28.16;44.78
6343;BME280;3204;42.698;23.298;2023-07-30T07:38:04;94756.06;;;28.35;44.40
6343;BME280;3204;42.698;23.298;2023-07-30T07:40:29;94764.22;;;28.68;43.69
6343;BME280;3204;42.698;23.298;2023-07-30T07:42:55;94763.84;;;28.86;42.94
6343;BME280;3204;42.698;23.298;2023-07-30T07:45:21;94761.16;;;29.02;42.85
6343;BME280;3204;42.698;23.298;2023-07-30T07:47:46;94759.22;;;29.18;42.84
6343;BME280;3204;42.698;23.298;2023-07-30T07:50:12;94759.69;;;29.33;42.39
6343;BME280;3204;42.698;23.298;2023-07-30T07:52:37;94757.22;;;28.99;43.06
6343;BME280;3204;42.698;23.298;2023-07-30T07:55:04;94760.88;;;29.16;41.97
6343;BME280;3204;42.698;23.298;2023-07-30T07:57:30;94749.31;;;28.94;41.73
6343;BME280;3204;42.698;23.298;2023-07-30T07:59:56;94761.97;;;29.38;41.68
6343;BME280;3204;42.698;23.298;2023-07-30T08:02:22;94756.22;;;29.80;40.77
6343;BME280;3204;42.698;23.298;2023-07-30T08:04:47;94757.38;;;30.15;40.37
6343;BME280;3204;42.698;23.298;2023-07-30T08:07:13;94757.53;;;30.40;39.38
6343;BME280;3204;42.698;23.298;2023-07-30T08:09:38;94750.53;;;30.32;39.47
6343;BME280;3204;42.698;23.298;2023-07-30T08:12:04;94748.53;;;30.61;38.66
6343;BME280;3204;42.698;23.298;2023-07-30T08:14:30;94755.97;;;30.83;38.36
6343;BME280;3204;42.698;23.298;2023-07-30T08:16:56;94749.28;;;30.93;38.38
6343;BME280;3204;42.698;23.298;2023-07-30T08:19:21;94749.50;;;30.99;38.16
6343;BME280;3204;42.698;23.298;2023-07-30T08:21:47;94741.03;;;31.15;37.76
6343;BME280;3204;42.698;23.298;2023-07-30T08:24:12;94754.00;;;31.50;37.96
6343;BME280;3204;42.698;23.298;2023-07-30T08:26:38;94744.41;;;31.76;36.72
6343;BME280;3204;42.698;23.298;2023-07-30T08:29:03;94740.66;;;31.66;36.80
6343;BME280;3204;42.698;23.298;2023-07-30T08:31:31;94743.69;;;31.47;37.47
6343;BME280;3204;42.698;23.298;2023-07-30T08:33:56;94742.47;;;31.07;37.04
6343;BME280;3204;42.698;23.298;2023-07-30T08:36:22;94746.25;;;31.00;37.90
6343;BME280;3204;42.698;23.298;2023-07-30T08:38:47;94730.13;;;31.04;37.81
6343;BME280;3204;42.698;23.298;2023-07-30T08:41:12;94730.31;;;31.51;36.88
6343;BME280;3204;42.698;23.298;2023-07-30T08:43:38;94730.38;;;31.76;36.49
6343;BME280;3204;42.698;23.298;2023-07-30T08:46:03;94727.63;;;31.60;36.02
6343;BME280;3204;42.698;23.298;2023-07-30T08:48:29;94726.22;;;31.14;36.53
6343;BME280;3204;42.698;23.298;2023-07-30T08:50:58;94727.28;;;30.92;37.33
6343;BME280;3204;42.698;23.298;2023-07-30T08:53:25;94714.53;;;31.03;37.30
6343;BME280;3204;42.698;23.298;2023-07-30T08:55:53;94722.22;;;31.28;37.02
6343;BME280;3204;42.698;23.298;2023-07-30T08:58:19;94731.69;;;31.46;36.40
6343;BME280;3204;42.698;23.298;2023-07-30T09:00:45;94712.03;;;31.59;35.90
6343;BME280;3204;42.698;23.298;2023-07-30T09:03:14;94724.16;;;31.68;35.56
6343;BME280;3204;42.698;23.298;2023-07-30T09:05:41;94710.44;;;32.08;35.14
6343;BME280;3204;42.698;23.298;2023-07-30T09:08:07;94713.94;;;32.46;34.35
6343;BME280;3204;42.698;23.298;2023-07-30T09:10:34;94715.84;;;32.83;33.72
6343;BME280;3204;42.698;23.298;2023-07-30T09:12:59;94702.88;;;32.64;33.42
6343;BME280;3204;42.698;23.298;2023-07-30T09:15:37;94714.28;;;32.82;33.62
6343;BME280;3204;42.698;23.298;2023-07-30T09:18:05;94709.81;;;32.72;33.83
6343;BME280;3204;42.698;23.298;2023-07-30T09:20:41;94704.22;;;32.93;33.64
6343;BME280;3204;42.698;23.298;2023-07-30T09:23:08;94708.47;;;32.42;33.33
6343;BME280;3204;42.698;23.298;2023-07-30T09:25:37;94706.00;;;32.44;34.11
6343;BME280;3204;42.698;23.298;2023-07-30T09:28:03;94701.63;;;32.65;33.17
6343;BME280;3204;42.698;23.298;2023-07-30T09:30:29;94696.34;;;32.67;32.25
6343;BME280;3204;42.698;23.298;2023-07-30T09:32:56;94698.38;;;32.66;32.85
6343;BME280;3204;42.698;23.298;2023-07-30T09:35:23;94688.75;;;32.55;31.46
6343;BME280;3204;42.698;23.298;2023-07-30T09:37:50;94687.84;;;32.58;29.97
6343;BME280;3204;42.698;23.298;2023-07-30T09:40:31;94689.44;;;33.02;30.11
6343;BME280;3204;42.698;23.298;2023-07-30T09:42:57;94682.25;;;33.53;30.36
6343;BME280;3204;42.698;23.298;2023-07-30T09:45:25;94689.47;;;34.02;29.88
6343;BME280;3204;42.698;23.298;2023-07-30T09:47:52;94683.16;;;34.38;29.28
6343;BME280;3204;42.698;23.298;2023-07-30T09:50:18;94686.63;;;34.60;29.53
6343;BME280;3204;42.698;23.298;2023-07-30T09:52:44;94685.06;;;34.95;29.57
6343;BME280;3204;42.698;23.298;2023-07-30T09:55:10;94685.78;;;35.22;29.17
6343;BME280;3204;42.698;23.298;2023-07-30T09:57:36;94688.19;;;34.70;29.47
6343;BME280;3204;42.698;23.298;2023-07-30T10:00:06;94676.59;;;34.41;29.12
6343;BME280;3204;42.698;23.298;2023-07-30T10:02:45;94679.16;;;33.69;29.71
6343;BME280;3204;42.698;23.298;2023-07-30T10:05:15;94667.06;;;33.81;30.32
6343;BME280;3204;42.698;23.298;2023-07-30T10:07:47;94668.94;;;33.93;30.67
6343;BME280;3204;42.698;23.298;2023-07-30T10:10:15;94660.03;;;33.55;30.83
6343;BME280;3204;42.698;23.298;2023-07-30T10:12:41;94648.84;;;33.73;30.28
6343;BME280;3204;42.698;23.298;2023-07-30T10:15:08;94655.69;;;33.63;30.77
6343;BME280;3204;42.698;23.298;2023-07-30T10:17:34;94651.59;;;33.55;30.04
6343;BME280;3204;42.698;23.298;2023-07-30T10:20:25;94649.19;;;33.75;30.15
6343;BME280;3204;42.698;23.298;2023-07-30T10:22:56;94648.25;;;34.35;30.29
6343;BME280;3204;42.698;23.298;2023-07-30T10:25:28;94646.22;;;34.81;29.43
6343;BME280;3204;42.698;23.298;2023-07-30T10:27:53;94639.94;;;34.59;29.27
6343;BME280;3204;42.698;23.298;2023-07-30T10:30:20;94641.19;;;34.85;28.92
6343;BME280;3204;42.698;23.298;2023-07-30T10:35:45;94623.00;;;34.23;29.86
6343;BME280;3204;42.698;23.298;2023-07-30T10:38:36;94627.53;;;34.02;29.47
6343;BME280;3204;42.698;23.298;2023-07-30T10:43:41;94614.25;;;34.75;29.36
6343;BME280;3204;42.698;23.298;2023-07-30T10:46:08;94620.50;;;34.88;29.46
6343;BME280;3204;42.698;23.298;2023-07-30T10:48:36;94616.03;;;35.32;28.81
6343;BME280;3204;42.698;23.298;2023-07-30T10:51:05;94614.28;;;35.67;28.41
6343;BME280;3204;42.698;23.298;2023-07-30T10:53:31;94603.19;;;35.63;28.33
6343;BME280;3204;42.698;23.298;2023-07-30T10:56:00;94604.03;;;35.55;28.42
6343;BME280;3204;42.698;23.298;2023-07-30T10:58:30;94598.91;;;35.68;28.50
6343;BME280;3204;42.698;23.298;2023-07-30T11:00:55;94596.97;;;35.83;28.56
6343;BME280;3204;42.698;23.298;2023-07-30T11:03:24;94600.88;;;36.09;28.13
6343;BME280;3204;42.698;23.298;2023-07-30T11:05:51;94590.66;;;36.35;27.43
6343;BME280;3204;42.698;23.298;2023-07-30T11:08:16;94585.75;;;36.59;27.47
6343;BME280;3204;42.698;23.298;2023-07-30T11:10:45;94586.84;;;36.76;27.14
6343;BME280;3204;42.698;23.298;2023-07-30T11:13:13;94581.31;;;36.82;26.61
6343;BME280;3204;42.698;23.298;2023-07-30T11:15:43;94574.56;;;36.03;27.19
6343;BME280;3204;42.698;23.298;2023-07-30T11:18:10;94567.81;;;35.77;28.45
6343;BME280;3204;42.698;23.298;2023-07-30T11:20:36;94559.03;;;35.98;27.39
6343;BME280;3204;42.698;23.298;2023-07-30T11:23:02;94561.78;;;35.93;27.16
6343;BME280;3204;42.698;23.298;2023-07-30T11:25:28;94564.94;;;36.10;27.45
6343;BME280;3204;42.698;23.298;2023-07-30T11:27:53;94562.69;;;36.37;26.70
6343;BME280;3204;42.698;23.298;2023-07-30T11:30:19;94554.34;;;36.57;27.14
6343;BME280;3204;42.698;23.298;2023-07-30T11:32:45;94556.56;;;36.53;26.78
6343;BME280;3204;42.698;23.298;2023-07-30T11:35:14;94549.75;;;35.83;27.12
6343;BME280;3204;42.698;23.298;2023-07-30T11:37:42;94553.50;;;35.57;27.39
6343;BME280;3204;42.698;23.298;2023-07-30T11:40:09;94544.28;;;35.47;27.09
6343;BME280;3204;42.698;23.298;2023-07-30T11:42:35;94540.56;;;35.74;27.17
6343;BME280;3204;42.698;23.298;2023-07-30T11:45:22;94541.47;;;36.18;27.00
6343;BME280;3204;42.698;23.298;2023-07-30T11:47:48;94530.63;;;36.40;26.58
6343;BME280;3204;42.698;23.298;2023-07-30T11:50:15;94528.34;;;35.92;27.37
6343;BME280;3204;42.698;23.298;2023-07-30T11:52:56;94518.97;;;35.62;27.28
6343;BME280;3204;42.698;23.298;2023-07-30T11:55:22;94515.72;;;35.31;27.53
6343;BME280;3204;42.698;23.298;2023-07-30T11:57:50;94519.44;;;34.95;28.34
6343;BME280;3204;42.698;23.298;2023-07-30T12:00:15;94512.50;;;35.05;27.91
6343;BME280;3204;42.698;23.298;2023-07-30T12:02:41;94513.47;;;35.35;27.98
6343;BME280;3204;42.698;23.298;2023-07-30T12:05:10;94501.47;;;35.49;27.83
6343;BME280;3204;42.698;23.298;2023-07-30T12:07:39;94507.31;;;35.69;27.36
6343;BME280;3204;42.698;23.298;2023-07-30T12:10:12;94497.38;;;35.26;27.17
6343;BME280;3204;42.698;23.298;2023-07-30T12:12:45;94494.19;;;35.01;27.44
6343;BME280;3204;42.698;23.298;2023-07-30T12:15:11;94490.19;;;34.84;28.19
6343;BME280;3204;42.698;23.298;2023-07-30T12:17:39;94480.13;;;34.92;29.52
6343;BME280;3204;42.698;23.298;2023-07-30T12:20:06;94475.16;;;35.43;28.67
6343;BME280;3204;42.698;23.298;2023-07-30T12:22:34;94483.84;;;35.87;28.17
6343;BME280;3204;42.698;23.298;2023-07-30T12:25:02;94480.06;;;36.18;27.53
6343;BME280;3204;42.698;23.298;2023-07-30T12:27:28;94470.19;;;35.85;27.23
6343;BME280;3204;42.698;23.298;2023-07-30T12:29:54;94465.75;;;35.46;27.59
6343;BME280;3204;42.698;23.298;2023-07-30T12:32:19;94462.88;;;35.22;28.37
6343;BME280;3204;42.698;23.298;2023-07-30T12:34:44;94456.63;;;34.95;28.34
6343;BME280;3204;42.698;23.298;2023-07-30T12:37:10;94460.56;;;34.88;28.40
6343;BME280;3204;42.698;23.298;2023-07-30T12:39:35;94460.56;;;34.88;28.34
6343;BME280;3204;42.698;23.298;2023-07-30T12:42:01;94451.19;;;34.73;28.41
6343;BME280;3204;42.698;23.298;2023-07-30T12:44:26;94459.94;;;34.75;29.11
6343;BME280;3204;42.698;23.298;2023-07-30T12:46:51;94451.38;;;34.79;29.45
6343;BME280;3204;42.698;23.298;2023-07-30T12:49:17;94440.53;;;35.10;28.43
6343;BME280;3204;42.698;23.298;2023-07-30T12:51:43;94440.69;;;35.15;28.31
6343;BME280;3204;42.698;23.298;2023-07-30T12:54:09;94440.38;;;35.13;28.58
6343;BME280;3204;42.698;23.298;2023-07-30T12:56:34;94441.94;;;35.14;28.76
6343;BME280;3204;42.698;23.298;2023-07-30T12:59:00;94441.53;;;35.54;28.06
6343;BME280;3204;42.698;23.298;2023-07-30T13:01:25;94435.28;;;35.73;27.21
6343;BME280;3204;42.698;23.298;2023-07-30T13:03:50;94433.94;;;35.83;27.20
6343;BME280;3204;42.698;23.298;2023-07-30T13:06:20;94439.56;;;35.69;27.48
6343;BME280;3204;42.698;23.298;2023-07-30T13:08:46;94432.97;;;35.48;27.82
6343;BME280;3204;42.698;23.298;2023-07-30T13:11:11;94441.97;;;35.38;28.30